Sacramento, CA (95826)

8:42 AM PDT on May 23, 2015 (GMT -0700)
Rosemont 2 | | Change Station
CLOSE
Current Station
Personal Weather Station
Location: Sacramento, CA
Elevation: 53 ft
Nearby Weather Stations

Elev 53 ft 38.54 °N, 121.37 °W | Updated 8 minutes ago

Overcast
Overcast
58.9 °F
Feels Like 58.9 °F
N
1.0
Wind Variable Wind from South
Gusts 5.0 mph

Today
High -- | Low -- °F
--% Chance of Precip.
Yesterday
High -- | Low -- °F
Precip. -- in
5:47 AM 8:17 PM
Waxing Crescent, 31% visible
Pressure 30.07 in
Visibility 10.0 miles
Clouds Overcast 9000 ft
Dew Point 52 °F
Humidity 77%
Rainfall -999.00 in
Snow Depth Not available.
UV 0 out of 12
Pollen 6.50 out of 12
Air Quality Not available.
Flu Activity Sporadic
METAR KMHR 231445Z 21005KT 10SM OVC090 14/10 A3007

More Conditions Fewer Conditions

Pressure 30.07 in
Visibility 10.0 miles
Clouds Overcast 9000 ft
Dew Point 52 °F
Humidity 77%
Rainfall -999.00 in
Snow Depth Not available.
UV 0 out of 12
Pollen 6.50 out of 12
Air Quality Not available.
Flu Activity Sporadic
METAR KMHR 231445Z 21005KT 10SM OVC090 14/10 A3007

More Conditions Fewer Conditions

10-Day Weather Forecast

Almanac

Astronomy

May. 23, 2015 Rise Set
Actual Time
Civil Twilight
Nautical Twilight
Astronomical Twilight
Moon
Length of Visible Light
Length of Day
Tomorrow will be .
, % of the Moon is Illuminated

Today's Extremes

State Highs State Lows

Community

WunderPhotos

Upload Photos

1,823,504 photos uploaded!

WunderBlogs® & News

Nearby

Air Quality

  Air Quality AQ Index Pollutant
Not available.

Snow Depth

Station Depth Elevation

Earthquake Activity

City Distance Mag. Time & Date
Minimum magnitude displayed is 2.5.

Coastal Water Temperatures

Place Temperature

Stations

Nearby Weather Stations

Station Location Temp. Windchill Dew Point Humidity Wind Precip. Elev Updated Type